sensor_id;sensor_type;location;lat;lon;timestamp;temperature;humidity
13229;DHT22;6680;53.220;10.402;2022-07-22T00:00:29;19.00;99.90
13229;DHT22;6680;53.220;10.402;2022-07-22T00:02:56;19.00;99.90
13229;DHT22;6680;53.220;10.402;2022-07-22T00:05:23;19.10;99.90
13229;DHT22;6680;53.220;10.402;2022-07-22T00:07:51;19.10;99.90
13229;DHT22;6680;53.220;10.402;2022-07-22T00:10:17;19.10;99.90
13229;DHT22;6680;53.220;10.402;2022-07-22T00:12:44;19.20;99.90
13229;DHT22;6680;53.220;10.402;2022-07-22T00:15:11;19.20;99.90
13229;DHT22;6680;53.220;10.402;2022-07-22T00:17:38;19.20;99.90
13229;DHT22;6680;53.220;10.402;2022-07-22T00:20:07;19.20;99.90
13229;DHT22;6680;53.220;10.402;2022-07-22T00:22:34;19.20;99.90
13229;DHT22;6680;53.220;10.402;2022-07-22T00:25:02;19.20;99.90
13229;DHT22;6680;53.220;10.402;2022-07-22T00:27:30;19.20;99.90
13229;DHT22;6680;53.220;10.402;2022-07-22T00:29:56;19.20;99.90
13229;DHT22;6680;53.220;10.402;2022-07-22T00:32:23;19.10;99.90
13229;DHT22;6680;53.220;10.402;2022-07-22T00:34:50;19.10;99.90
13229;DHT22;6680;53.220;10.402;2022-07-22T00:37:17;19.10;99.90
13229;DHT22;6680;53.220;10.402;2022-07-22T00:39:43;19.10;99.90
13229;DHT22;6680;53.220;10.402;2022-07-22T00:42:11;19.10;99.90
13229;DHT22;6680;53.220;10.402;2022-07-22T00:44:38;19.10;99.90
13229;DHT22;6680;53.220;10.402;2022-07-22T00:47:05;19.10;99.90
13229;DHT22;6680;53.220;10.402;2022-07-22T00:49:32;19.10;99.90
13229;DHT22;6680;53.220;10.402;2022-07-22T00:51:59;19.10;99.90
13229;DHT22;6680;53.220;10.402;2022-07-22T00:54:26;19.20;99.90
13229;DHT22;6680;53.220;10.402;2022-07-22T00:56:53;19.20;99.90
13229;DHT22;6680;53.220;10.402;2022-07-22T00:59:21;19.20;99.90
13229;DHT22;6680;53.220;10.402;2022-07-22T01:01:47;19.20;99.90
13229;DHT22;6680;53.220;10.402;2022-07-22T01:04:14;19.20;99.90
13229;DHT22;6680;53.220;10.402;2022-07-22T01:06:41;19.20;99.90
13229;DHT22;6680;53.220;10.402;2022-07-22T01:09:10;19.20;99.90
13229;DHT22;6680;53.220;10.402;2022-07-22T01:11:38;19.20;99.90
13229;DHT22;6680;53.220;10.402;2022-07-22T01:14:05;19.20;99.90
13229;DHT22;6680;53.220;10.402;2022-07-22T01:16:33;19.20;99.90
13229;DHT22;6680;53.220;10.402;2022-07-22T01:19:01;19.20;99.90
13229;DHT22;6680;53.220;10.402;2022-07-22T01:21:30;19.20;99.90
13229;DHT22;6680;53.220;10.402;2022-07-22T01:23:56;19.30;99.90
13229;DHT22;6680;53.220;10.402;2022-07-22T01:26:23;19.20;99.90
13229;DHT22;6680;53.220;10.402;2022-07-22T01:28:50;19.30;99.90
13229;DHT22;6680;53.220;10.402;2022-07-22T01:31:17;19.30;99.90
13229;DHT22;6680;53.220;10.402;2022-07-22T01:33:43;19.30;99.90
13229;DHT22;6680;53.220;10.402;2022-07-22T01:36:10;19.30;99.90
13229;DHT22;6680;53.220;10.402;2022-07-22T01:38:38;19.30;99.90
13229;DHT22;6680;53.220;10.402;2022-07-22T01:41:05;19.30;99.90
13229;DHT22;6680;53.220;10.402;2022-07-22T01:43:32;19.30;99.90
13229;DHT22;6680;53.220;10.402;2022-07-22T01:45:59;19.30;99.90
13229;DHT22;6680;53.220;10.402;2022-07-22T01:48:25;19.30;99.90
13229;DHT22;6680;53.220;10.402;2022-07-22T01:50:52;19.10;99.90
13229;DHT22;6680;53.220;10.402;2022-07-22T01:53:19;19.30;99.90
13229;DHT22;6680;53.220;10.402;2022-07-22T01:55:47;19.30;99.90
13229;DHT22;6680;53.220;10.402;2022-07-22T01:58:14;19.20;99.90
13229;DHT22;6680;53.220;10.402;2022-07-22T02:03:08;19.00;99.90
13229;DHT22;6680;53.220;10.402;2022-07-22T02:05:36;18.90;99.90
13229;DHT22;6680;53.220;10.402;2022-07-22T02:08:05;18.80;99.90
13229;DHT22;6680;53.220;10.402;2022-07-22T02:10:32;18.70;99.90
13229;DHT22;6680;53.220;10.402;2022-07-22T02:13:00;18.60;99.90
13229;DHT22;6680;53.220;10.402;2022-07-22T02:15:27;18.50;99.90
13229;DHT22;6680;53.220;10.402;2022-07-22T02:17:54;18.30;99.90
13229;DHT22;6680;53.220;10.402;2022-07-22T02:20:22;18.20;99.90
13229;DHT22;6680;53.220;10.402;2022-07-22T02:22:49;18.00;99.90
13229;DHT22;6680;53.220;10.402;2022-07-22T02:25:16;17.90;99.90
13229;DHT22;6680;53.220;10.402;2022-07-22T02:27:42;17.90;99.90
13229;DHT22;6680;53.220;10.402;2022-07-22T02:30:11;17.90;99.90
13229;DHT22;6680;53.220;10.402;2022-07-22T02:32:37;17.80;99.90
13229;DHT22;6680;53.220;10.402;2022-07-22T02:35:05;17.70;99.90
13229;DHT22;6680;53.220;10.402;2022-07-22T02:37:32;17.70;99.90
13229;DHT22;6680;53.220;10.402;2022-07-22T02:39:59;17.70;99.90
13229;DHT22;6680;53.220;10.402;2022-07-22T02:42:25;17.60;99.90
13229;DHT22;6680;53.220;10.402;2022-07-22T02:44:52;17.60;99.90
13229;DHT22;6680;53.220;10.402;2022-07-22T02:47:20;17.50;99.90
13229;DHT22;6680;53.220;10.402;2022-07-22T02:49:47;17.40;99.90
13229;DHT22;6680;53.220;10.402;2022-07-22T02:52:13;17.30;99.90
13229;DHT22;6680;53.220;10.402;2022-07-22T02:54:40;17.20;99.90
13229;DHT22;6680;53.220;10.402;2022-07-22T02:57:07;17.30;99.90
13229;DHT22;6680;53.220;10.402;2022-07-22T02:59:34;17.20;99.90
13229;DHT22;6680;53.220;10.402;2022-07-22T03:02:00;17.20;99.90
13229;DHT22;6680;53.220;10.402;2022-07-22T03:04:29;17.20;99.90
13229;DHT22;6680;53.220;10.402;2022-07-22T03:06:55;17.10;99.90
13229;DHT22;6680;53.220;10.402;2022-07-22T03:09:22;17.10;99.90
13229;DHT22;6680;53.220;10.402;2022-07-22T03:11:49;17.00;99.90
13229;DHT22;6680;53.220;10.402;2022-07-22T03:14:15;17.00;99.90
13229;DHT22;6680;53.220;10.402;2022-07-22T03:16:43;17.00;99.90
13229;DHT22;6680;53.220;10.402;2022-07-22T03:19:10;16.90;99.90
13229;DHT22;6680;53.220;10.402;2022-07-22T03:21:38;16.90;99.90
13229;DHT22;6680;53.220;10.402;2022-07-22T03:24:05;17.00;99.90
13229;DHT22;6680;53.220;10.402;2022-07-22T03:26:32;17.00;99.90
13229;DHT22;6680;53.220;10.402;2022-07-22T03:28:59;16.80;99.90
13229;DHT22;6680;53.220;10.402;2022-07-22T03:31:25;16.90;99.90
13229;DHT22;6680;53.220;10.402;2022-07-22T03:33:52;16.80;99.90
13229;DHT22;6680;53.220;10.402;2022-07-22T03:36:19;16.80;99.90
13229;DHT22;6680;53.220;10.402;2022-07-22T03:38:47;16.80;99.90
13229;DHT22;6680;53.220;10.402;2022-07-22T03:41:14;16.80;99.90
13229;DHT22;6680;53.220;10.402;2022-07-22T03:43:40;16.70;99.90
13229;DHT22;6680;53.220;10.402;2022-07-22T03:46:07;16.70;99.90
13229;DHT22;6680;53.220;10.402;2022-07-22T03:48:34;16.60;99.90
13229;DHT22;6680;53.220;10.402;2022-07-22T03:51:01;16.50;99.90
13229;DHT22;6680;53.220;10.402;2022-07-22T03:53:27;16.60;99.90
13229;DHT22;6680;53.220;10.402;2022-07-22T03:55:55;16.60;99.90
13229;DHT22;6680;53.220;10.402;2022-07-22T03:58:22;16.50;99.90
13229;DHT22;6680;53.220;10.402;2022-07-22T04:00:49;16.40;99.90
13229;DHT22;6680;53.220;10.402;2022-07-22T04:03:16;16.50;99.90
13229;DHT22;6680;53.220;10.402;2022-07-22T04:05:43;16.50;99.90
13229;DHT22;6680;53.220;10.402;2022-07-22T04:08:11;16.60;99.90
13229;DHT22;6680;53.220;10.402;2022-07-22T04:10:37;16.50;99.90
13229;DHT22;6680;53.220;10.402;2022-07-22T04:13:06;16.50;99.90
13229;DHT22;6680;53.220;10.402;2022-07-22T04:15:33;16.50;99.90
13229;DHT22;6680;53.220;10.402;2022-07-22T04:17:59;16.60;99.90
13229;DHT22;6680;53.220;10.402;2022-07-22T04:20:26;16.70;99.90
13229;DHT22;6680;53.220;10.402;2022-07-22T04:22:53;16.70;99.90
13229;DHT22;6680;53.220;10.402;2022-07-22T04:25:20;16.60;99.90
13229;DHT22;6680;53.220;10.402;2022-07-22T04:27:48;16.70;99.90
13229;DHT22;6680;53.220;10.402;2022-07-22T04:30:16;16.70;99.90
13229;DHT22;6680;53.220;10.402;2022-07-22T04:32:42;16.70;99.90
13229;DHT22;6680;53.220;10.402;2022-07-22T04:35:09;16.80;99.90
13229;DHT22;6680;53.220;10.402;2022-07-22T04:37:36;16.80;99.90
13229;DHT22;6680;53.220;10.402;2022-07-22T04:40:03;16.80;99.90
13229;DHT22;6680;53.220;10.402;2022-07-22T04:42:30;16.80;99.90
13229;DHT22;6680;53.220;10.402;2022-07-22T04:44:57;16.80;99.90
13229;DHT22;6680;53.220;10.402;2022-07-22T04:47:25;16.80;99.90
13229;DHT22;6680;53.220;10.402;2022-07-22T04:49:51;16.90;99.90
13229;DHT22;6680;53.220;10.402;2022-07-22T04:52:18;16.80;99.90
13229;DHT22;6680;53.220;10.402;2022-07-22T04:54:45;16.80;99.90
13229;DHT22;6680;53.220;10.402;2022-07-22T04:57:12;16.80;99.90
13229;DHT22;6680;53.220;10.402;2022-07-22T04:59:38;16.80;99.90
13229;DHT22;6680;53.220;10.402;2022-07-22T05:02:05;16.90;99.90
13229;DHT22;6680;53.220;10.402;2022-07-22T05:04:34;16.80;99.90
13229;DHT22;6680;53.220;10.402;2022-07-22T05:07:01;16.70;99.90
13229;DHT22;6680;53.220;10.402;2022-07-22T05:09:28;16.60;99.90
13229;DHT22;6680;53.220;10.402;2022-07-22T05:11:55;16.70;99.90
13229;DHT22;6680;53.220;10.402;2022-07-22T05:14:22;16.70;99.90
13229;DHT22;6680;53.220;10.402;2022-07-22T05:16:48;16.70;99.90
13229;DHT22;6680;53.220;10.402;2022-07-22T05:19:15;16.70;99.90
13229;DHT22;6680;53.220;10.402;2022-07-22T05:21:43;16.70;99.90
13229;DHT22;6680;53.220;10.402;2022-07-22T05:24:10;16.80;99.90
13229;DHT22;6680;53.220;10.402;2022-07-22T05:26:37;16.80;99.90
13229;DHT22;6680;53.220;10.402;2022-07-22T05:29:04;16.80;99.90
13229;DHT22;6680;53.220;10.402;2022-07-22T05:31:30;16.80;99.90
13229;DHT22;6680;53.220;10.402;2022-07-22T05:33:57;16.80;99.90
13229;DHT22;6680;53.220;10.402;2022-07-22T05:36:24;16.80;99.90
13229;DHT22;6680;53.220;10.402;2022-07-22T05:38:52;16.80;99.90
13229;DHT22;6680;53.220;10.402;2022-07-22T05:41:19;16.90;99.90
13229;DHT22;6680;53.220;10.402;2022-07-22T05:43:45;16.90;99.90
13229;DHT22;6680;53.220;10.402;2022-07-22T05:46:12;17.00;99.90
13229;DHT22;6680;53.220;10.402;2022-07-22T05:48:39;17.00;99.90
13229;DHT22;6680;53.220;10.402;2022-07-22T05:51:10;17.00;99.90
13229;DHT22;6680;53.220;10.402;2022-07-22T05:53:37;17.10;99.90
13229;DHT22;6680;53.220;10.402;2022-07-22T05:56:06;17.10;99.90
13229;DHT22;6680;53.220;10.402;2022-07-22T05:58:33;17.20;99.90
13229;DHT22;6680;53.220;10.402;2022-07-22T06:00:59;17.40;99.90
13229;DHT22;6680;53.220;10.402;2022-07-22T06:03:26;17.30;99.90
13229;DHT22;6680;53.220;10.402;2022-07-22T06:05:53;17.10;99.90
13229;DHT22;6680;53.220;10.402;2022-07-22T06:08:19;17.00;99.90
13229;DHT22;6680;53.220;10.402;2022-07-22T06:10:46;16.80;99.90
13229;DHT22;6680;53.220;10.402;2022-07-22T06:13:14;16.90;99.90
13229;DHT22;6680;53.220;10.402;2022-07-22T06:15:41;16.80;99.90
13229;DHT22;6680;53.220;10.402;2022-07-22T06:18:08;16.80;99.90
13229;DHT22;6680;53.220;10.402;2022-07-22T06:20:34;16.80;99.90
13229;DHT22;6680;53.220;10.402;2022-07-22T06:23:01;16.70;99.90
13229;DHT22;6680;53.220;10.402;2022-07-22T06:25:28;16.70;99.90
13229;DHT22;6680;53.220;10.402;2022-07-22T06:27:55;16.70;99.90
13229;DHT22;6680;53.220;10.402;2022-07-22T06:30:23;16.60;99.90
13229;DHT22;6680;53.220;10.402;2022-07-22T06:32:49;16.60;99.90
13229;DHT22;6680;53.220;10.402;2022-07-22T06:35:16;16.50;99.90
13229;DHT22;6680;53.220;10.402;2022-07-22T06:37:43;16.40;99.90
13229;DHT22;6680;53.220;10.402;2022-07-22T06:40:10;16.70;99.90
13229;DHT22;6680;53.220;10.402;2022-07-22T06:42:37;16.80;99.90
13229;DHT22;6680;53.220;10.402;2022-07-22T06:45:05;16.90;99.90
13229;DHT22;6680;53.220;10.402;2022-07-22T06:47:33;17.00;99.90
13229;DHT22;6680;53.220;10.402;2022-07-22T06:50:01;17.30;99.90
13229;DHT22;6680;53.220;10.402;2022-07-22T06:52:28;17.20;99.90
13229;DHT22;6680;53.220;10.402;2022-07-22T06:54:54;17.40;99.90
13229;DHT22;6680;53.220;10.402;2022-07-22T06:57:21;17.40;99.90
13229;DHT22;6680;53.220;10.402;2022-07-22T06:59:48;17.50;99.90
13229;DHT22;6680;53.220;10.402;2022-07-22T07:02:15;17.80;99.90
13229;DHT22;6680;53.220;10.402;2022-07-22T07:04:43;18.00;99.90
13229;DHT22;6680;53.220;10.402;2022-07-22T07:07:11;18.20;99.90
13229;DHT22;6680;53.220;10.402;2022-07-22T07:09:37;18.40;99.90
13229;DHT22;6680;53.220;10.402;2022-07-22T07:12:04;18.80;99.90
13229;DHT22;6680;53.220;10.402;2022-07-22T07:14:31;19.00;99.90
13229;DHT22;6680;53.220;10.402;2022-07-22T07:16:58;19.20;99.90
13229;DHT22;6680;53.220;10.402;2022-07-22T07:19:25;19.40;99.90
13229;DHT22;6680;53.220;10.402;2022-07-22T07:21:53;19.40;99.90
13229;DHT22;6680;53.220;10.402;2022-07-22T07:24:19;19.50;99.90
13229;DHT22;6680;53.220;10.402;2022-07-22T07:26:46;19.60;99.90
13229;DHT22;6680;53.220;10.402;2022-07-22T07:29:13;19.60;99.90
13229;DHT22;6680;53.220;10.402;2022-07-22T07:31:39;19.80;99.90
13229;DHT22;6680;53.220;10.402;2022-07-22T07:34:06;20.00;99.90
13229;DHT22;6680;53.220;10.402;2022-07-22T07:36:33;19.80;99.90
13229;DHT22;6680;53.220;10.402;2022-07-22T07:39:01;19.90;99.90
13229;DHT22;6680;53.220;10.402;2022-07-22T07:41:28;19.80;99.90
13229;DHT22;6680;53.220;10.402;2022-07-22T07:43:54;19.80;99.90
13229;DHT22;6680;53.220;10.402;2022-07-22T07:46:21;19.80;99.90
13229;DHT22;6680;53.220;10.402;2022-07-22T07:48:48;19.90;99.90
13229;DHT22;6680;53.220;10.402;2022-07-22T07:51:15;19.80;99.90
13229;DHT22;6680;53.220;10.402;2022-07-22T07:53:41;19.60;99.90
13229;DHT22;6680;53.220;10.402;2022-07-22T07:56:09;19.60;99.90
13229;DHT22;6680;53.220;10.402;2022-07-22T07:58:37;19.40;99.90
13229;DHT22;6680;53.220;10.402;2022-07-22T08:01:04;19.20;99.90
13229;DHT22;6680;53.220;10.402;2022-07-22T08:03:31;19.00;99.90
13229;DHT22;6680;53.220;10.402;2022-07-22T08:05:58;18.80;99.90
13229;DHT22;6680;53.220;10.402;2022-07-22T08:08:25;18.70;99.90
13229;DHT22;6680;53.220;10.402;2022-07-22T08:10:52;18.50;99.90
13229;DHT22;6680;53.220;10.402;2022-07-22T08:13:20;18.30;99.90
13229;DHT22;6680;53.220;10.402;2022-07-22T08:15:47;18.20;99.90
13229;DHT22;6680;53.220;10.402;2022-07-22T08:18:14;18.20;99.90
13229;DHT22;6680;53.220;10.402;2022-07-22T08:20:41;18.20;99.90
13229;DHT22;6680;53.220;10.402;2022-07-22T08:23:07;18.30;99.90
13229;DHT22;6680;53.220;10.402;2022-07-22T08:25:34;18.40;99.90
13229;DHT22;6680;53.220;10.402;2022-07-22T08:28:01;18.50;99.90
13229;DHT22;6680;53.220;10.402;2022-07-22T08:30:29;18.40;99.90
13229;DHT22;6680;53.220;10.402;2022-07-22T08:32:56;18.40;99.90
13229;DHT22;6680;53.220;10.402;2022-07-22T08:35:23;18.30;99.90
13229;DHT22;6680;53.220;10.402;2022-07-22T08:37:50;18.20;99.90
13229;DHT22;6680;53.220;10.402;2022-07-22T08:40:18;18.20;99.90
13229;DHT22;6680;53.220;10.402;2022-07-22T08:42:46;18.20;99.90
13229;DHT22;6680;53.220;10.402;2022-07-22T08:45:14;18.30;99.90
13229;DHT22;6680;53.220;10.402;2022-07-22T08:47:43;18.40;99.90
13229;DHT22;6680;53.220;10.402;2022-07-22T08:50:10;18.40;99.90
13229;DHT22;6680;53.220;10.402;2022-07-22T08:52:37;18.30;99.90
13229;DHT22;6680;53.220;10.402;2022-07-22T08:55:05;18.20;99.90
13229;DHT22;6680;53.220;10.402;2022-07-22T08:57:32;18.10;99.90
13229;DHT22;6680;53.220;10.402;2022-07-22T09:00:02;18.00;99.90
13229;DHT22;6680;53.220;10.402;2022-07-22T09:02:36;18.00;99.90
13229;DHT22;6680;53.220;10.402;2022-07-22T09:05:05;18.10;99.90
13229;DHT22;6680;53.220;10.402;2022-07-22T09:07:33;18.30;99.90
13229;DHT22;6680;53.220;10.402;2022-07-22T09:10:03;18.40;99.90
13229;DHT22;6680;53.220;10.402;2022-07-22T09:12:30;18.50;99.90
13229;DHT22;6680;53.220;10.402;2022-07-22T09:14:59;18.60;99.90
13229;DHT22;6680;53.220;10.402;2022-07-22T09:17:27;18.60;99.90
13229;DHT22;6680;53.220;10.402;2022-07-22T09:19:55;18.60;99.90
13229;DHT22;6680;53.220;10.402;2022-07-22T09:22:35;18.60;99.90
13229;DHT22;6680;53.220;10.402;2022-07-22T09:25:26;18.50;99.90
13229;DHT22;6680;53.220;10.402;2022-07-22T09:27:54;18.50;99.90
13229;DHT22;6680;53.220;10.402;2022-07-22T09:30:24;18.70;99.90
13229;DHT22;6680;53.220;10.402;2022-07-22T09:32:52;18.90;99.90
13229;DHT22;6680;53.220;10.402;2022-07-22T09:35:20;19.10;99.90
13229;DHT22;6680;53.220;10.402;2022-07-22T09:37:50;19.30;99.90
13229;DHT22;6680;53.220;10.402;2022-07-22T09:40:18;19.40;99.90
13229;DHT22;6680;53.220;10.402;2022-07-22T09:42:47;19.40;99.90
13229;DHT22;6680;53.220;10.402;2022-07-22T09:45:14;19.60;99.90
13229;DHT22;6680;53.220;10.402;2022-07-22T09:47:42;19.60;99.90
13229;DHT22;6680;53.220;10.402;2022-07-22T09:50:16;19.70;99.90
13229;DHT22;6680;53.220;10.402;2022-07-22T09:52:43;19.60;99.90
13229;DHT22;6680;53.220;10.402;2022-07-22T09:55:13;19.60;99.90
13229;DHT22;6680;53.220;10.402;2022-07-22T09:57:40;19.60;99.90
13229;DHT22;6680;53.220;10.402;2022-07-22T10:00:07;19.50;99.90
13229;DHT22;6680;53.220;10.402;2022-07-22T10:02:40;19.50;99.90
13229;DHT22;6680;53.220;10.402;2022-07-22T10:05:09;19.40;99.90
13229;DHT22;6680;53.220;10.402;2022-07-22T10:07:36;19.40;99.90
13229;DHT22;6680;53.220;10.402;2022-07-22T10:10:04;19.50;99.90
13229;DHT22;6680;53.220;10.402;2022-07-22T10:12:33;19.70;99.90
13229;DHT22;6680;53.220;10.402;2022-07-22T10:15:01;19.70;99.90
13229;DHT22;6680;53.220;10.402;2022-07-22T10:17:29;19.70;99.90
13229;DHT22;6680;53.220;10.402;2022-07-22T10:19:56;19.90;99.90
13229;DHT22;6680;53.220;10.402;2022-07-22T10:22:46;20.00;99.90
13229;DHT22;6680;53.220;10.402;2022-07-22T10:25:16;20.10;99.90
13229;DHT22;6680;53.220;10.402;2022-07-22T10:27:46;20.20;99.90
13229;DHT22;6680;53.220;10.402;2022-07-22T10:30:15;20.30;99.90
13229;DHT22;6680;53.220;10.402;2022-07-22T10:32:42;20.50;99.90
13229;DHT22;6680;53.220;10.402;2022-07-22T10:35:21;20.90;99.90
13229;DHT22;6680;53.220;10.402;2022-07-22T10:37:49;20.90;99.90
13229;DHT22;6680;53.220;10.402;2022-07-22T10:40:17;20.90;99.90
13229;DHT22;6680;53.220;10.402;2022-07-22T10:43:08;21.10;99.90
13229;DHT22;6680;53.220;10.402;2022-07-22T10:45:38;21.30;99.90
13229;DHT22;6680;53.220;10.402;2022-07-22T10:48:07;21.30;99.90
13229;DHT22;6680;53.220;10.402;2022-07-22T10:51:06;21.50;99.90
13229;DHT22;6680;53.220;10.402;2022-07-22T10:53:45;21.50;99.90
13229;DHT22;6680;53.220;10.402;2022-07-22T10:56:14;21.20;99.90
13229;DHT22;6680;53.220;10.402;2022-07-22T11:01:32;20.70;99.90
13229;DHT22;6680;53.220;10.402;2022-07-22T11:04:17;20.20;99.90
13229;DHT22;6680;53.220;10.402;2022-07-22T11:06:45;20.10;99.90
13229;DHT22;6680;53.220;10.402;2022-07-22T11:09:14;20.10;99.90
13229;DHT22;6680;53.220;10.402;2022-07-22T11:11:43;20.20;99.90
13229;DHT22;6680;53.220;10.402;2022-07-22T11:14:17;20.30;99.90
13229;DHT22;6680;53.220;10.402;2022-07-22T11:16:45;20.40;99.90
13229;DHT22;6680;53.220;10.402;2022-07-22T11:19:12;20.70;99.90
13229;DHT22;6680;53.220;10.402;2022-07-22T11:21:39;20.70;99.90
13229;DHT22;6680;53.220;10.402;2022-07-22T11:24:07;20.90;99.90
13229;DHT22;6680;53.220;10.402;2022-07-22T11:26:39;21.10;99.90
13229;DHT22;6680;53.220;10.402;2022-07-22T11:29:06;21.30;99.90
13229;DHT22;6680;53.220;10.402;2022-07-22T11:31:35;21.40;99.90
13229;DHT22;6680;53.220;10.402;2022-07-22T11:34:07;21.60;99.90
13229;DHT22;6680;53.220;10.402;2022-07-22T11:36:35;21.80;99.90
13229;DHT22;6680;53.220;10.402;2022-07-22T11:39:02;21.80;99.90
13229;DHT22;6680;53.220;10.402;2022-07-22T11:41:30;21.70;99.90
13229;DHT22;6680;53.220;10.402;2022-07-22T11:43:57;21.60;99.90
13229;DHT22;6680;53.220;10.402;2022-07-22T11:46:24;21.50;99.90
13229;DHT22;6680;53.220;10.402;2022-07-22T11:48:53;21.30;99.90
13229;DHT22;6680;53.220;10.402;2022-07-22T11:51:20;21.40;99.90
13229;DHT22;6680;53.220;10.402;2022-07-22T11:53:46;21.10;99.90
13229;DHT22;6680;53.220;10.402;2022-07-22T11:56:13;21.10;99.90
13229;DHT22;6680;53.220;10.402;2022-07-22T11:58:42;21.10;99.90
13229;DHT22;6680;53.220;10.402;2022-07-22T12:01:11;21.20;99.90
13229;DHT22;6680;53.220;10.402;2022-07-22T12:03:40;21.40;99.90
13229;DHT22;6680;53.220;10.402;2022-07-22T12:06:11;21.50;99.90
13229;DHT22;6680;53.220;10.402;2022-07-22T12:08:42;21.70;99.90
13229;DHT22;6680;53.220;10.402;2022-07-22T12:11:10;21.80;99.90
13229;DHT22;6680;53.220;10.402;2022-07-22T12:13:41;21.80;99.90
13229;DHT22;6680;53.220;10.402;2022-07-22T12:16:20;21.70;99.90
13229;DHT22;6680;53.220;10.402;2022-07-22T12:18:56;21.50;99.90
13229;DHT22;6680;53.220;10.402;2022-07-22T12:21:25;21.70;99.90
13229;DHT22;6680;53.220;10.402;2022-07-22T12:23:54;21.60;99.90
13229;DHT22;6680;53.220;10.402;2022-07-22T12:26:40;21.90;99.90
13229;DHT22;6680;53.220;10.402;2022-07-22T12:29:16;21.90;99.90
13229;DHT22;6680;53.220;10.402;2022-07-22T12:31:44;21.90;99.90
13229;DHT22;6680;53.220;10.402;2022-07-22T12:34:11;22.00;99.90
13229;DHT22;6680;53.220;10.402;2022-07-22T12:36:43;21.90;99.90
13229;DHT22;6680;53.220;10.402;2022-07-22T12:39:12;21.70;99.90
13229;DHT22;6680;53.220;10.402;2022-07-22T12:41:46;21.40;99.90
13229;DHT22;6680;53.220;10.402;2022-07-22T12:44:16;21.50;99.90
13229;DHT22;6680;53.220;10.402;2022-07-22T12:46:44;21.50;99.90
13229;DHT22;6680;53.220;10.402;2022-07-22T12:49:12;21.80;99.90
13229;DHT22;6680;53.220;10.402;2022-07-22T12:51:40;22.00;99.90
13229;DHT22;6680;53.220;10.402;2022-07-22T12:54:06;22.30;99.90
13229;DHT22;6680;53.220;10.402;2022-07-22T12:56:33;22.40;99.90
13229;DHT22;6680;53.220;10.402;2022-07-22T12:59:00;22.40;99.90
13229;DHT22;6680;53.220;10.402;2022-07-22T13:01:27;22.30;99.90
13229;DHT22;6680;53.220;10.402;2022-07-22T13:03:53;22.30;99.90
13229;DHT22;6680;53.220;10.402;2022-07-22T13:06:20;22.30;99.90
13229;DHT22;6680;53.220;10.402;2022-07-22T13:08:48;22.40;99.90
13229;DHT22;6680;53.220;10.402;2022-07-22T13:11:15;22.40;99.90
13229;DHT22;6680;53.220;10.402;2022-07-22T13:13:42;22.40;99.90
13229;DHT22;6680;53.220;10.402;2022-07-22T13:16:10;22.00;99.90
13229;DHT22;6680;53.220;10.402;2022-07-22T13:18:37;21.90;99.90
13229;DHT22;6680;53.220;10.402;2022-07-22T13:21:04;22.00;99.90
13229;DHT22;6680;53.220;10.402;2022-07-22T13:23:31;21.90;99.90
13229;DHT22;6680;53.220;10.402;2022-07-22T13:25:59;21.90;99.90
13229;DHT22;6680;53.220;10.402;2022-07-22T13:28:25;21.80;99.90
13229;DHT22;6680;53.220;10.402;2022-07-22T13:30:52;21.90;99.90
13229;DHT22;6680;53.220;10.402;2022-07-22T13:33:19;21.80;99.90
13229;DHT22;6680;53.220;10.402;2022-07-22T13:35:45;21.70;99.90
13229;DHT22;6680;53.220;10.402;2022-07-22T13:38:12;21.60;99.90
13229;DHT22;6680;53.220;10.402;2022-07-22T13:40:41;21.50;99.90
13229;DHT22;6680;53.220;10.402;2022-07-22T13:43:16;21.50;99.90
13229;DHT22;6680;53.220;10.402;2022-07-22T13:45:43;21.60;99.90
13229;DHT22;6680;53.220;10.402;2022-07-22T13:48:10;21.60;99.90
13229;DHT22;6680;53.220;10.402;2022-07-22T13:50:37;21.50;99.90
13229;DHT22;6680;53.220;10.402;2022-07-22T13:53:04;21.20;99.90
13229;DHT22;6680;53.220;10.402;2022-07-22T13:57:58;21.10;99.90
13229;DHT22;6680;53.220;10.402;2022-07-22T14:00:26;21.10;99.90
13229;DHT22;6680;53.220;10.402;2022-07-22T14:02:53;21.00;99.90
13229;DHT22;6680;53.220;10.402;2022-07-22T14:05:19;20.90;99.90
13229;DHT22;6680;53.220;10.402;2022-07-22T14:07:46;20.80;99.90
13229;DHT22;6680;53.220;10.402;2022-07-22T14:10:13;20.70;99.90
13229;DHT22;6680;53.220;10.402;2022-07-22T14:12:40;20.70;99.90
13229;DHT22;6680;53.220;10.402;2022-07-22T14:15:08;20.80;99.90
13229;DHT22;6680;53.220;10.402;2022-07-22T14:17:37;20.80;99.90
13229;DHT22;6680;53.220;10.402;2022-07-22T14:20:05;20.80;99.90
13229;DHT22;6680;53.220;10.402;2022-07-22T14:22:33;20.90;99.90
13229;DHT22;6680;53.220;10.402;2022-07-22T14:25:00;20.90;99.90
13229;DHT22;6680;53.220;10.402;2022-07-22T14:27:26;21.00;99.90
13229;DHT22;6680;53.220;10.402;2022-07-22T14:29:53;21.00;99.90
13229;DHT22;6680;53.220;10.402;2022-07-22T14:32:20;21.00;99.90
13229;DHT22;6680;53.220;10.402;2022-07-22T14:34:48;21.10;99.90
13229;DHT22;6680;53.220;10.402;2022-07-22T14:37:15;21.10;99.90
13229;DHT22;6680;53.220;10.402;2022-07-22T14:39:41;21.40;99.90
13229;DHT22;6680;53.220;10.402;2022-07-22T14:42:09;21.50;99.90
13229;DHT22;6680;53.220;10.402;2022-07-22T14:44:35;21.70;99.90
13229;DHT22;6680;53.220;10.402;2022-07-22T14:47:02;22.10;99.90
13229;DHT22;6680;53.220;10.402;2022-07-22T14:49:29;22.50;99.90
13229;DHT22;6680;53.220;10.402;2022-07-22T14:51:57;22.80;99.90
13229;DHT22;6680;53.220;10.402;2022-07-22T14:54:23;22.90;99.90
13229;DHT22;6680;53.220;10.402;2022-07-22T14:56:50;23.10;99.90
13229;DHT22;6680;53.220;10.402;2022-07-22T15:01:44;23.10;99.90
13229;DHT22;6680;53.220;10.402;2022-07-22T15:04:10;22.90;99.90
13229;DHT22;6680;53.220;10.402;2022-07-22T15:06:37;22.80;99.90
13229;DHT22;6680;53.220;10.402;2022-07-22T15:09:05;22.80;99.90
13229;DHT22;6680;53.220;10.402;2022-07-22T15:11:32;23.00;99.90
13229;DHT22;6680;53.220;10.402;2022-07-22T15:13:58;23.40;99.90
13229;DHT22;6680;53.220;10.402;2022-07-22T15:16:25;23.40;99.90
13229;DHT22;6680;53.220;10.402;2022-07-22T15:18:53;23.20;99.90
13229;DHT22;6680;53.220;10.402;2022-07-22T15:21:19;22.80;99.90
13229;DHT22;6680;53.220;10.402;2022-07-22T15:23:47;22.70;99.90
13229;DHT22;6680;53.220;10.402;2022-07-22T15:26:15;22.60;99.90
13229;DHT22;6680;53.220;10.402;2022-07-22T15:28:42;22.60;99.90
13229;DHT22;6680;53.220;10.402;2022-07-22T15:31:09;22.50;99.90
13229;DHT22;6680;53.220;10.402;2022-07-22T15:33:36;22.60;99.90
13229;DHT22;6680;53.220;10.402;2022-07-22T15:36:04;22.50;99.90
13229;DHT22;6680;53.220;10.402;2022-07-22T15:38:31;22.40;99.90
13229;DHT22;6680;53.220;10.402;2022-07-22T15:40:58;22.00;99.90
13229;DHT22;6680;53.220;10.402;2022-07-22T15:43:26;22.10;99.90